Briscoe, Texas
Current Conditions -  °F | °C
As of 1:15 AM on Wednesday 22 Oct 2014 (Local Time) from KHHF Reporting Station
Clear Clear  
Wind Chill: 64°   Ceiling: Unl
Heat Index: 64°   Visibility: 10mi
Dew Point: 52°   Wind: 13mph
Humidity: 67%   Direction: 190°S
Pressure: 30.05"   Gusts: NA
Location:  35.58°N, 100.29°W
Report Text: KHHF 220615Z AUTO 19011KT 10SM CLR 18/11 A3005 RMK AO2 T01750112
Loading
Personal Weather Stations






























Interactive Weather Map New forecast layout! Learn more

10-Day Weather Forecast

Advertisements
Track Severe Weather on mobile